Wayland, MI (49348)

12:33 PM EDT on October 31, 2014 (GMT -0400)
KMIHOPKI2 | Change Station
CLOSE
Current Station
Personal Weather Station
Location: Hopkins, MI
Elevation: 732 ft
Nearby Weather Stations
Active Advisory: Wind Advisory Active Notice: Public Information Statement

Elev 732 ft 42.64 °N, 85.68 °W | Updated 6 seconds ago

Rain
Rain
37.4 °F
Feels Like 33 °F
N
6.0
Wind Variable Wind from North
Gusts 16.0 mph

Today
High -- | Low -- °F
--% Chance of Precip.
Yesterday
High -- | Low -- °F
Precip. -- in
8:15 AM 6:36 PM
First Quarter, 56% visible
Pressure 29.98 in
Visibility 2.0 miles
Clouds Mostly Cloudy 800 ft
Overcast 1200 ft
Windchill 33 °F
Dew Point 36 °F
Humidity 93%
Rainfall 0.11 in
Snow Depth Not available.
UV 1 out of 12
Pollen .10 out of 12
Air Quality Not available.
Flu Activity Not available.
SPECI KGRR 311623Z 01017G25KT 2SM -SN BR BKN008 OVC012 02/01 A2998 RMK AO2 P0005 T00220011

More Conditions Fewer Conditions

Pressure 29.98 in
Visibility 2.0 miles
Clouds Mostly Cloudy 800 ft
Overcast 1200 ft
Windchill 33 °F
Dew Point 36 °F
Humidity 93%
Rainfall 0.11 in
Snow Depth Not available.
UV 1 out of 12
Pollen .10 out of 12
Air Quality Not available.
Flu Activity Not available.
SPECI KGRR 311623Z 01017G25KT 2SM -SN BR BKN008 OVC012 02/01 A2998 RMK AO2 P0005 T00220011

More Conditions Fewer Conditions

10-Day Weather Forecast

Almanac

Astronomy

Oct. 31, 2014 Rise Set
Actual Time
Civil Twilight
Nautical Twilight
Astronomical Twilight
Moon
Length of Visible Light
Length of Day
Tomorrow will be .
, % of the Moon is Illuminated

Today's Extremes

State Highs State Lows

Community

WunderPhotos

Upload Photos

1,766,656 photos uploaded!

WunderBlogs® & News

Nearby

Air Quality

  Air Quality AQ Index Pollutant
Not available.

Snow Depth

Station Depth Elevation

Earthquake Activity

City Distance Mag. Time & Date
Minimum magnitude displayed is 2.5.

Coastal Water Temperatures

Place Temperature

Nearby Weather Stations